UAL3242 PAKT-KEYW
Flight info
| Callsign | UAL3242 |
|---|---|
| Flight time | N/A |
| Altitude | 39000 |
| Route | ANN3 ANN YYD WASEN 49N110W GGW DPR ONL MCI MEM/N0482F410 MGM LAL/N0485F400 EYW |
| Aircraft | A359/H-SDE2E3GHIJ3J4J5LM1ORWXY/LB1D1 |
Departure
| Time | 2026-04-25 11:30 |
|---|---|
| Airport | Ketchikan International Airport (PAKT) |
Arrival
| Time | N/A |
|---|---|
| Airport | Key West International Airport (KEYW) |
| Time | Latitude | Longitude | Altitude | Speed | Heading |
|---|---|---|---|---|---|
| 2026-04-25 11:17 | 55.34968 | -131.70078 | 104 ft | 0 kts | 58° |
| 2026-04-25 11:26 | 55.34967 | -131.70047 | 104 ft | 2 kts | 117° |
| 2026-04-25 11:27 | 55.34940 | -131.70022 | 103 ft | 9 kts | 167° |
| 2026-04-25 11:27 | 55.34903 | -131.70023 | 104 ft | 0 kts | 192° |
| 2026-04-25 11:28 | 55.34835 | -131.70066 | 106 ft | 8 kts | 223° |
| 2026-04-25 11:29 | 55.34834 | -131.70129 | 107 ft | 7 kts | 289° |
| 2026-04-25 11:29 | 55.34895 | -131.70244 | 103 ft | 37 kts | 315° |
| 2026-04-25 11:29 | 55.35297 | -131.70935 | 103 ft | 123 kts | 315° |
| 2026-04-25 11:29 | 55.36072 | -131.72282 | 392 ft | 174 kts | 316° |
| 2026-04-25 11:30 | 55.36943 | -131.73863 | 1378 ft | 184 kts | 315° |
| 2026-04-25 11:30 | 55.37690 | -131.75782 | 2034 ft | 200 kts | 289° |
| 2026-04-25 11:30 | 55.37574 | -131.78281 | 2307 ft | 224 kts | 248° |
| 2026-04-25 11:30 | 55.36443 | -131.80363 | 2551 ft | 253 kts | 208° |
| 2026-04-25 11:31 | 55.34704 | -131.80942 | 2972 ft | 265 kts | 172° |
| 2026-04-25 11:31 | 55.33006 | -131.79655 | 3520 ft | 268 kts | 137° |
| 2026-04-25 11:31 | 55.31888 | -131.77080 | 4080 ft | 269 kts | 115° |
| 2026-04-25 11:31 | 55.31069 | -131.74081 | 4668 ft | 272 kts | 112° |
| 2026-04-25 11:32 | 55.30171 | -131.71166 | 5231 ft | 279 kts | 127° |
| 2026-04-25 11:32 | 55.28655 | -131.68983 | 5856 ft | 282 kts | 150° |
| 2026-04-25 11:32 | 55.26868 | -131.67635 | 6543 ft | 283 kts | 162° |
| 2026-04-25 11:32 | 55.24978 | -131.66720 | 7166 ft | 284 kts | 167° |
| 2026-04-25 11:33 | 55.23031 | -131.65960 | 7766 ft | 287 kts | 168° |
| 2026-04-25 11:33 | 55.21062 | -131.65200 | 8371 ft | 289 kts | 167° |
| 2026-04-25 11:33 | 55.19114 | -131.64386 | 8997 ft | 291 kts | 166° |
| 2026-04-25 11:33 | 55.17143 | -131.63486 | 9622 ft | 293 kts | 165° |
| 2026-04-25 11:34 | 55.15181 | -131.62531 | 10210 ft | 298 kts | 164° |
| 2026-04-25 11:34 | 55.13134 | -131.61498 | 10472 ft | 312 kts | 163° |
| 2026-04-25 11:34 | 55.11015 | -131.60400 | 10692 ft | 327 kts | 162° |
| 2026-04-25 11:34 | 55.08868 | -131.58783 | 10907 ft | 341 kts | 149° |
| 2026-04-25 11:35 | 55.06972 | -131.56172 | 11104 ft | 354 kts | 131° |
| 2026-04-25 11:35 | 55.05618 | -131.52529 | 11323 ft | 364 kts | 111° |
| 2026-04-25 11:35 | 55.04851 | -131.48279 | 11664 ft | 369 kts | 102° |
| 2026-04-25 11:35 | 55.04336 | -131.43892 | 12113 ft | 372 kts | 98° |
| 2026-04-25 11:36 | 55.03932 | -131.39450 | 12573 ft | 375 kts | 97° |
| 2026-04-25 11:36 | 55.03551 | -131.34934 | 13073 ft | 377 kts | 97° |
| 2026-04-25 11:36 | 55.03155 | -131.30393 | 13557 ft | 379 kts | 98° |
| 2026-04-25 11:36 | 55.02733 | -131.25876 | 14039 ft | 381 kts | 98° |
| 2026-04-25 11:37 | 55.02281 | -131.21302 | 14452 ft | 383 kts | 99° |
| 2026-04-25 11:37 | 55.01807 | -131.16687 | 14846 ft | 387 kts | 99° |
| 2026-04-25 11:37 | 55.01324 | -131.12094 | 15258 ft | 389 kts | 99° |
| 2026-04-25 11:37 | 55.00825 | -131.07410 | 15653 ft | 392 kts | 99° |
| 2026-04-25 11:38 | 55.00323 | -131.02717 | 16073 ft | 394 kts | 99° |
| 2026-04-25 11:38 | 54.99823 | -130.98059 | 16483 ft | 397 kts | 99° |
| 2026-04-25 11:38 | 54.99313 | -130.93299 | 16897 ft | 399 kts | 99° |
| 2026-04-25 11:38 | 54.98797 | -130.88507 | 17288 ft | 402 kts | 99° |
| 2026-04-25 11:39 | 54.98284 | -130.83745 | 17682 ft | 405 kts | 99° |
| 2026-04-25 11:39 | 54.97760 | -130.78891 | 18092 ft | 407 kts | 99° |
| 2026-04-25 11:39 | 54.97231 | -130.74018 | 18476 ft | 410 kts | 99° |
| 2026-04-25 11:39 | 54.96878 | -130.70777 | 18704 ft | 412 kts | 99° |
| 2026-04-25 11:40 | 54.96341 | -130.65859 | 19061 ft | 414 kts | 99° |
| 2026-04-25 11:40 | 54.95618 | -130.59306 | 19510 ft | 417 kts | 99° |
| 2026-04-25 11:40 | 54.95254 | -130.56009 | 19754 ft | 418 kts | 99° |
| 2026-04-25 11:40 | 54.94703 | -130.51023 | 20074 ft | 420 kts | 99° |
| 2026-04-25 11:41 | 54.94147 | -130.46014 | 20409 ft | 422 kts | 99° |
| 2026-04-25 11:41 | 54.93585 | -130.40978 | 20718 ft | 424 kts | 99° |
| 2026-04-25 11:41 | 54.93019 | -130.35916 | 21012 ft | 427 kts | 99° |
| 2026-04-25 11:41 | 54.92448 | -130.30831 | 21346 ft | 428 kts | 99° |
| 2026-04-25 11:42 | 54.91881 | -130.25806 | 21654 ft | 430 kts | 99° |
| 2026-04-25 11:42 | 54.91301 | -130.20679 | 21972 ft | 432 kts | 99° |
| 2026-04-25 11:42 | 54.90714 | -130.15518 | 22282 ft | 434 kts | 99° |
| 2026-04-25 11:42 | 54.90130 | -130.10407 | 22590 ft | 436 kts | 99° |
| 2026-04-25 11:43 | 54.89532 | -130.05191 | 22879 ft | 438 kts | 99° |
| 2026-04-25 11:43 | 54.88933 | -129.99988 | 23184 ft | 440 kts | 99° |
| 2026-04-25 11:43 | 54.88327 | -129.94743 | 23481 ft | 442 kts | 99° |
| 2026-04-25 11:43 | 54.87724 | -129.89559 | 23764 ft | 444 kts | 99° |
| 2026-04-25 11:44 | 54.87110 | -129.84282 | 24017 ft | 446 kts | 99° |
| 2026-04-25 11:44 | 54.86488 | -129.78966 | 24280 ft | 447 kts | 99° |
| 2026-04-25 11:44 | 54.85872 | -129.73721 | 24550 ft | 448 kts | 99° |
| 2026-04-25 11:44 | 54.85246 | -129.68412 | 24813 ft | 450 kts | 99° |
| 2026-04-25 11:45 | 54.84611 | -129.63066 | 25075 ft | 451 kts | 99° |
| 2026-04-25 11:45 | 54.83984 | -129.57790 | 25324 ft | 452 kts | 99° |
| 2026-04-25 11:45 | 54.83347 | -129.52431 | 25598 ft | 453 kts | 99° |
| 2026-04-25 11:45 | 54.82702 | -129.47045 | 25861 ft | 455 kts | 99° |
| 2026-04-25 11:46 | 54.82052 | -129.41643 | 26156 ft | 456 kts | 99° |
| 2026-04-25 11:46 | 54.81407 | -129.36309 | 26428 ft | 458 kts | 99° |
| 2026-04-25 11:46 | 54.80748 | -129.30888 | 26738 ft | 459 kts | 99° |
| 2026-04-25 11:46 | 54.80084 | -129.25440 | 27051 ft | 461 kts | 99° |
| 2026-04-25 11:47 | 54.79425 | -129.20059 | 27354 ft | 462 kts | 99° |
| 2026-04-25 11:47 | 54.78753 | -129.14576 | 27655 ft | 464 kts | 99° |
| 2026-04-25 11:47 | 54.78076 | -129.09080 | 27979 ft | 465 kts | 99° |
| 2026-04-25 11:47 | 54.77405 | -129.03651 | 28290 ft | 467 kts | 99° |
| 2026-04-25 11:48 | 54.76720 | -128.98128 | 28584 ft | 469 kts | 99° |
| 2026-04-25 11:48 | 54.76027 | -128.92563 | 28912 ft | 471 kts | 99° |
| 2026-04-25 11:48 | 54.75331 | -128.87016 | 29231 ft | 472 kts | 99° |
| 2026-04-25 11:48 | 54.74628 | -128.81435 | 29555 ft | 474 kts | 99° |
| 2026-04-25 11:49 | 54.73929 | -128.75900 | 29869 ft | 476 kts | 99° |
| 2026-04-25 11:49 | 54.73219 | -128.70296 | 30169 ft | 478 kts | 99° |
| 2026-04-25 11:49 | 54.72504 | -128.64677 | 30429 ft | 479 kts | 99° |
| 2026-04-25 11:49 | 54.71778 | -128.59022 | 30703 ft | 480 kts | 99° |
| 2026-04-25 11:50 | 54.71050 | -128.53369 | 30992 ft | 481 kts | 99° |
| 2026-04-25 11:50 | 54.70321 | -128.47705 | 31259 ft | 482 kts | 99° |
| 2026-04-25 11:50 | 54.69598 | -128.42111 | 31627 ft | 480 kts | 99° |
| 2026-04-25 11:50 | 54.68865 | -128.36471 | 32019 ft | 478 kts | 99° |
| 2026-04-25 11:51 | 54.68134 | -128.30859 | 32418 ft | 476 kts | 99° |
| 2026-04-25 11:51 | 54.67416 | -128.25356 | 32803 ft | 474 kts | 99° |
| 2026-04-25 11:51 | 54.66690 | -128.19813 | 33162 ft | 472 kts | 99° |
| 2026-04-25 11:51 | 54.65961 | -128.14272 | 33537 ft | 470 kts | 99° |
| 2026-04-25 11:52 | 54.65233 | -128.08762 | 33938 ft | 469 kts | 99° |
| 2026-04-25 11:52 | 54.64506 | -128.03288 | 34304 ft | 467 kts | 99° |
| 2026-04-25 11:52 | 54.63787 | -127.97894 | 34617 ft | 466 kts | 99° |
| 2026-04-25 11:52 | 54.63056 | -127.92420 | 34855 ft | 466 kts | 99° |
| 2026-04-25 11:53 | 54.62324 | -127.86971 | 35135 ft | 466 kts | 99° |
| 2026-04-25 11:53 | 54.61589 | -127.81519 | 35428 ft | 465 kts | 99° |
| 2026-04-25 11:53 | 54.60862 | -127.76147 | 35705 ft | 465 kts | 99° |
| 2026-04-25 11:53 | 54.60121 | -127.70690 | 36004 ft | 465 kts | 99° |
| 2026-04-25 11:54 | 54.59381 | -127.65248 | 36258 ft | 465 kts | 99° |
| 2026-04-25 11:54 | 54.58636 | -127.59813 | 36510 ft | 465 kts | 99° |
| 2026-04-25 11:54 | 54.57143 | -127.48957 | 36989 ft | 465 kts | 99° |
| 2026-04-25 11:55 | 54.56402 | -127.43597 | 37244 ft | 465 kts | 99° |
| 2026-04-25 11:55 | 54.55650 | -127.38180 | 37481 ft | 465 kts | 99° |
| 2026-04-25 11:55 | 54.54892 | -127.32742 | 37715 ft | 465 kts | 99° |
| 2026-04-25 11:55 | 54.54134 | -127.27317 | 37935 ft | 465 kts | 99° |
| 2026-04-25 11:56 | 54.53371 | -127.21881 | 38147 ft | 465 kts | 99° |
| 2026-04-25 11:56 | 54.52617 | -127.16519 | 38350 ft | 465 kts | 99° |
| 2026-04-25 11:56 | 54.51847 | -127.11072 | 38559 ft | 465 kts | 99° |
| 2026-04-25 11:56 | 54.51087 | -127.05711 | 38771 ft | 465 kts | 99° |
| 2026-04-25 11:57 | 54.50318 | -127.00305 | 38945 ft | 465 kts | 99° |
| 2026-04-25 11:57 | 54.49542 | -126.94874 | 39095 ft | 466 kts | 99° |
| 2026-04-25 11:57 | 54.48766 | -126.89451 | 39197 ft | 467 kts | 99° |
| 2026-04-25 11:58 | 54.47203 | -126.78588 | 39222 ft | 471 kts | 99° |
| 2026-04-25 11:58 | 54.45593 | -126.67629 | 39222 ft | 472 kts | 102° |
| 2026-04-25 11:59 | 54.43281 | -126.57058 | 39226 ft | 476 kts | 108° |
| 2026-04-25 11:59 | 54.40683 | -126.46554 | 39225 ft | 477 kts | 109° |
| 2026-04-25 12:00 | 54.36724 | -126.30868 | 39229 ft | 478 kts | 109° |
| 2026-04-25 12:01 | 54.32777 | -126.15225 | 39230 ft | 478 kts | 109° |
| 2026-04-25 12:01 | 54.30120 | -126.04731 | 39238 ft | 479 kts | 109° |
| 2026-04-25 12:02 | 54.26126 | -125.89054 | 39246 ft | 479 kts | 109° |
| 2026-04-25 12:02 | 54.23458 | -125.78645 | 39242 ft | 480 kts | 109° |
| 2026-04-25 12:03 | 54.20764 | -125.68180 | 39242 ft | 480 kts | 109° |
| 2026-04-25 12:03 | 54.18073 | -125.57776 | 39235 ft | 481 kts | 109° |
| 2026-04-25 12:04 | 54.15358 | -125.47329 | 39250 ft | 481 kts | 109° |
| 2026-04-25 12:04 | 54.12627 | -125.36874 | 39233 ft | 482 kts | 109° |
| 2026-04-25 12:05 | 54.09902 | -125.26485 | 39234 ft | 482 kts | 109° |
| 2026-04-25 12:05 | 54.07147 | -125.16032 | 39232 ft | 482 kts | 109° |
| 2026-04-25 12:06 | 54.04403 | -125.05663 | 39229 ft | 483 kts | 109° |
| 2026-04-25 12:06 | 54.01622 | -124.95208 | 39231 ft | 483 kts | 109° |
| 2026-04-25 12:07 | 53.98839 | -124.84794 | 39233 ft | 483 kts | 109° |
| 2026-04-25 12:07 | 53.96055 | -124.74424 | 39232 ft | 484 kts | 109° |
| 2026-04-25 12:08 | 53.93263 | -124.64068 | 39232 ft | 484 kts | 109° |
| 2026-04-25 12:08 | 53.90461 | -124.53720 | 39238 ft | 484 kts | 109° |
| 2026-04-25 12:09 | 53.87632 | -124.43323 | 39232 ft | 485 kts | 109° |
| 2026-04-25 12:09 | 53.84794 | -124.32934 | 39230 ft | 485 kts | 109° |
| 2026-04-25 12:10 | 53.81963 | -124.22622 | 39228 ft | 485 kts | 109° |
| 2026-04-25 12:10 | 53.79102 | -124.12251 | 39228 ft | 485 kts | 110° |
| 2026-04-25 12:11 | 53.76241 | -124.01924 | 39225 ft | 486 kts | 110° |
| 2026-04-25 12:11 | 53.73364 | -123.91583 | 39226 ft | 486 kts | 110° |
| 2026-04-25 12:12 | 53.70963 | -123.82989 | 39222 ft | 486 kts | 110° |
| 2026-04-25 12:12 | 53.67590 | -123.70973 | 39225 ft | 486 kts | 110° |
| 2026-04-25 12:13 | 53.64695 | -123.60705 | 39233 ft | 486 kts | 110° |
| 2026-04-25 12:13 | 53.61788 | -123.50437 | 39229 ft | 487 kts | 110° |
| 2026-04-25 12:14 | 53.58858 | -123.40132 | 39228 ft | 487 kts | 111° |
| 2026-04-25 12:14 | 53.55930 | -123.29880 | 39229 ft | 487 kts | 111° |
| 2026-04-25 12:15 | 53.52977 | -123.19590 | 39227 ft | 488 kts | 111° |
| 2026-04-25 12:15 | 53.50032 | -123.09376 | 39230 ft | 488 kts | 111° |
| 2026-04-25 12:16 | 53.47053 | -122.99089 | 39230 ft | 488 kts | 111° |
| 2026-04-25 12:16 | 53.44084 | -122.88875 | 39228 ft | 489 kts | 111° |
| 2026-04-25 12:17 | 53.41083 | -122.78600 | 39232 ft | 489 kts | 112° |
| 2026-04-25 12:17 | 53.38091 | -122.68398 | 39233 ft | 490 kts | 112° |
| 2026-04-25 12:18 | 53.35068 | -122.58137 | 39219 ft | 490 kts | 112° |
| 2026-04-25 12:18 | 53.32051 | -122.47940 | 39211 ft | 490 kts | 112° |
| 2026-04-25 12:19 | 53.27495 | -122.32619 | 39208 ft | 490 kts | 112° |
| 2026-04-25 12:20 | 53.24453 | -122.22446 | 39212 ft | 491 kts | 112° |
| 2026-04-25 12:20 | 53.21404 | -122.12292 | 39208 ft | 491 kts | 113° |
| 2026-04-25 12:21 | 53.18321 | -122.02069 | 39209 ft | 491 kts | 113° |
| 2026-04-25 12:21 | 53.15248 | -121.91924 | 39212 ft | 491 kts | 113° |
| 2026-04-25 12:22 | 53.12169 | -121.81802 | 39204 ft | 491 kts | 113° |
| 2026-04-25 12:22 | 53.09053 | -121.71600 | 39204 ft | 492 kts | 114° |
| 2026-04-25 12:23 | 53.05957 | -121.61506 | 39199 ft | 492 kts | 114° |
| 2026-04-25 12:23 | 53.02843 | -121.51395 | 39195 ft | 493 kts | 114° |
| 2026-04-25 12:24 | 52.99697 | -121.41224 | 39195 ft | 493 kts | 114° |
| 2026-04-25 12:24 | 52.96565 | -121.31143 | 39189 ft | 493 kts | 114° |
| 2026-04-25 12:25 | 52.93425 | -121.21074 | 39190 ft | 493 kts | 114° |
| 2026-04-25 12:25 | 52.90254 | -121.10951 | 39192 ft | 493 kts | 114° |
| 2026-04-25 12:26 | 52.87608 | -121.02540 | 39187 ft | 493 kts | 114° |
| 2026-04-25 12:26 | 52.83925 | -120.90873 | 39179 ft | 493 kts | 114° |
| 2026-04-25 12:27 | 52.81274 | -120.82509 | 39178 ft | 493 kts | 114° |
| 2026-04-25 12:27 | 52.78071 | -120.72445 | 39183 ft | 493 kts | 115° |
| 2026-04-25 12:28 | 52.74862 | -120.62403 | 39183 ft | 493 kts | 115° |
| 2026-04-25 12:28 | 52.71663 | -120.52426 | 39185 ft | 494 kts | 115° |
| 2026-04-25 12:29 | 52.68449 | -120.42451 | 39183 ft | 494 kts | 115° |
| 2026-04-25 12:29 | 52.65207 | -120.32433 | 39192 ft | 494 kts | 115° |
| 2026-04-25 12:30 | 52.61982 | -120.22504 | 39192 ft | 494 kts | 115° |
| 2026-04-25 12:30 | 52.58722 | -120.12507 | 39192 ft | 494 kts | 115° |
| 2026-04-25 12:31 | 52.55474 | -120.02587 | 39192 ft | 495 kts | 115° |
| 2026-04-25 12:31 | 52.52195 | -119.92613 | 39187 ft | 494 kts | 115° |
| 2026-04-25 12:32 | 52.48932 | -119.82729 | 39193 ft | 495 kts | 116° |
| 2026-04-25 12:32 | 52.45660 | -119.72856 | 39198 ft | 495 kts | 116° |
| 2026-04-25 12:33 | 52.42356 | -119.62925 | 39200 ft | 495 kts | 116° |
| 2026-04-25 12:33 | 52.39035 | -119.52984 | 39202 ft | 495 kts | 116° |
| 2026-04-25 12:34 | 52.35732 | -119.43143 | 39199 ft | 495 kts | 116° |
| 2026-04-25 12:34 | 52.32410 | -119.33279 | 39207 ft | 496 kts | 116° |
| 2026-04-25 12:35 | 52.29067 | -119.23393 | 39208 ft | 496 kts | 116° |
| 2026-04-25 12:35 | 52.25731 | -119.13562 | 39206 ft | 496 kts | 116° |
| 2026-04-25 12:36 | 52.22365 | -119.03684 | 39204 ft | 496 kts | 117° |
| 2026-04-25 12:36 | 52.19004 | -118.93862 | 39202 ft | 496 kts | 117° |
| 2026-04-25 12:37 | 52.15646 | -118.84086 | 39201 ft | 497 kts | 117° |
| 2026-04-25 12:37 | 52.12252 | -118.74247 | 39196 ft | 496 kts | 117° |
| 2026-04-25 12:38 | 52.08870 | -118.64475 | 39196 ft | 497 kts | 117° |
| 2026-04-25 12:38 | 52.05465 | -118.54682 | 39195 ft | 497 kts | 117° |
| 2026-04-25 12:39 | 52.02046 | -118.44884 | 39192 ft | 497 kts | 117° |
| 2026-04-25 12:39 | 51.98638 | -118.35153 | 39193 ft | 497 kts | 117° |
| 2026-04-25 12:40 | 51.95217 | -118.25426 | 39195 ft | 497 kts | 117° |
| 2026-04-25 12:40 | 51.91801 | -118.15750 | 39199 ft | 497 kts | 118° |
| 2026-04-25 12:41 | 51.88349 | -118.06008 | 39195 ft | 497 kts | 118° |
| 2026-04-25 12:41 | 51.84911 | -117.96340 | 39192 ft | 497 kts | 118° |
| 2026-04-25 12:42 | 51.81455 | -117.86663 | 39187 ft | 497 kts | 118° |
| 2026-04-25 12:42 | 51.77980 | -117.76967 | 39187 ft | 497 kts | 118° |
| 2026-04-25 12:43 | 51.74523 | -117.67359 | 39183 ft | 498 kts | 118° |
| 2026-04-25 12:43 | 51.69275 | -117.52846 | 39170 ft | 498 kts | 118° |
| 2026-04-25 12:44 | 51.65781 | -117.43228 | 39160 ft | 498 kts | 118° |
| 2026-04-25 12:45 | 51.60529 | -117.28838 | 39149 ft | 498 kts | 119° |
| 2026-04-25 12:45 | 51.55381 | -117.14295 | 39137 ft | 497 kts | 115° |
| 2026-04-25 12:46 | 51.52388 | -117.04341 | 39122 ft | 497 kts | 114° |
| 2026-04-25 12:46 | 51.49378 | -116.94299 | 39111 ft | 498 kts | 114° |
| 2026-04-25 12:47 | 51.46318 | -116.84389 | 39116 ft | 498 kts | 115° |
| 2026-04-25 12:47 | 51.43207 | -116.74479 | 39114 ft | 498 kts | 115° |
| 2026-04-25 12:48 | 51.40072 | -116.64555 | 39116 ft | 498 kts | 115° |
| 2026-04-25 12:48 | 51.36937 | -116.54661 | 39141 ft | 499 kts | 115° |
| 2026-04-25 12:49 | 51.33799 | -116.44786 | 39154 ft | 499 kts | 115° |
| 2026-04-25 12:49 | 51.30649 | -116.34910 | 39142 ft | 499 kts | 115° |
| 2026-04-25 12:50 | 51.27473 | -116.24999 | 39140 ft | 499 kts | 115° |
| 2026-04-25 12:50 | 51.24309 | -116.15163 | 39136 ft | 500 kts | 115° |
| 2026-04-25 12:51 | 51.21128 | -116.05311 | 39133 ft | 500 kts | 115° |
| 2026-04-25 12:51 | 51.17939 | -115.95479 | 39129 ft | 500 kts | 116° |
| 2026-04-25 12:52 | 51.14723 | -115.85598 | 39122 ft | 501 kts | 116° |
| 2026-04-25 12:52 | 51.11516 | -115.75782 | 39120 ft | 501 kts | 116° |
| 2026-04-25 12:53 | 51.08301 | -115.65983 | 39120 ft | 501 kts | 116° |
| 2026-04-25 12:53 | 51.05061 | -115.56146 | 39117 ft | 502 kts | 116° |
| 2026-04-25 12:54 | 51.01822 | -115.46352 | 39116 ft | 502 kts | 116° |
| 2026-04-25 12:54 | 50.98554 | -115.36510 | 39121 ft | 502 kts | 116° |
| 2026-04-25 12:55 | 50.95828 | -115.28328 | 39124 ft | 502 kts | 116° |
| 2026-04-25 12:55 | 50.92009 | -115.16910 | 39126 ft | 503 kts | 116° |
| 2026-04-25 12:56 | 50.88735 | -115.07161 | 39129 ft | 503 kts | 116° |
| 2026-04-25 12:56 | 50.85439 | -114.97390 | 39134 ft | 503 kts | 116° |
| 2026-04-25 12:57 | 50.82141 | -114.87649 | 39146 ft | 503 kts | 116° |
| 2026-04-25 12:57 | 50.78819 | -114.77872 | 39156 ft | 504 kts | 116° |
| 2026-04-25 12:58 | 50.75486 | -114.68102 | 39166 ft | 504 kts | 116° |
| 2026-04-25 12:58 | 50.72156 | -114.58379 | 39175 ft | 504 kts | 117° |
| 2026-04-25 12:59 | 50.68819 | -114.48672 | 39183 ft | 504 kts | 117° |
| 2026-04-25 12:59 | 50.65483 | -114.39007 | 39188 ft | 504 kts | 117° |
| 2026-04-25 13:00 | 50.63231 | -114.32502 | 39178 ft | 504 kts | 117° |
| 2026-04-25 13:00 | 50.58755 | -114.19623 | 39180 ft | 504 kts | 117° |
| 2026-04-25 13:01 | 50.55375 | -114.09943 | 39185 ft | 504 kts | 117° |
| 2026-04-25 13:01 | 50.52003 | -114.00317 | 39189 ft | 504 kts | 117° |
| 2026-04-25 13:02 | 50.48594 | -113.90628 | 39195 ft | 504 kts | 117° |
| 2026-04-25 13:02 | 50.45200 | -113.81015 | 39197 ft | 505 kts | 117° |
| 2026-04-25 13:03 | 50.41790 | -113.71392 | 39201 ft | 505 kts | 117° |
| 2026-04-25 13:03 | 50.38378 | -113.61803 | 39200 ft | 505 kts | 118° |
| 2026-04-25 13:04 | 50.34935 | -113.52161 | 39199 ft | 505 kts | 118° |
| 2026-04-25 13:04 | 50.31508 | -113.42601 | 39197 ft | 505 kts | 118° |
| 2026-04-25 13:05 | 50.28066 | -113.33032 | 39198 ft | 506 kts | 118° |
| 2026-04-25 13:05 | 50.24616 | -113.23479 | 39198 ft | 506 kts | 118° |
| 2026-04-25 13:06 | 50.21134 | -113.13874 | 39194 ft | 506 kts | 118° |
| 2026-04-25 13:06 | 50.17667 | -113.04344 | 39190 ft | 507 kts | 118° |
| 2026-04-25 13:07 | 50.14163 | -112.94748 | 39188 ft | 507 kts | 118° |
| 2026-04-25 13:07 | 50.10669 | -112.85216 | 39187 ft | 507 kts | 118° |
| 2026-04-25 13:08 | 50.07172 | -112.75710 | 39181 ft | 507 kts | 118° |
| 2026-04-25 13:08 | 50.03655 | -112.66187 | 39178 ft | 507 kts | 118° |
| 2026-04-25 13:09 | 50.00146 | -112.56719 | 39175 ft | 507 kts | 119° |
| 2026-04-25 13:09 | 49.96621 | -112.47240 | 39175 ft | 507 kts | 119° |
| 2026-04-25 13:10 | 49.93069 | -112.37726 | 39176 ft | 508 kts | 119° |
| 2026-04-25 13:10 | 49.89530 | -112.28282 | 39176 ft | 508 kts | 119° |
| 2026-04-25 13:11 | 49.85978 | -112.18836 | 39178 ft | 508 kts | 119° |
| 2026-04-25 13:11 | 49.82393 | -112.09336 | 39176 ft | 508 kts | 119° |
| 2026-04-25 13:12 | 49.78834 | -111.99943 | 39179 ft | 508 kts | 119° |
| 2026-04-25 13:12 | 49.76450 | -111.93666 | 39166 ft | 509 kts | 119° |
| 2026-04-25 13:13 | 49.71651 | -111.81080 | 39172 ft | 509 kts | 120° |
| 2026-04-25 13:13 | 49.68646 | -111.73231 | 39169 ft | 509 kts | 120° |
| 2026-04-25 13:14 | 49.65037 | -111.63835 | 39182 ft | 509 kts | 120° |
| 2026-04-25 13:14 | 49.61426 | -111.54465 | 39168 ft | 509 kts | 120° |
| 2026-04-25 13:15 | 49.57783 | -111.45049 | 39169 ft | 510 kts | 120° |
| 2026-04-25 13:15 | 49.54153 | -111.35696 | 39167 ft | 511 kts | 120° |
| 2026-04-25 13:16 | 49.50507 | -111.26338 | 39166 ft | 511 kts | 120° |
| 2026-04-25 13:16 | 49.46839 | -111.16956 | 39160 ft | 512 kts | 120° |
| 2026-04-25 13:17 | 49.43170 | -111.07605 | 39169 ft | 512 kts | 120° |
| 2026-04-25 13:17 | 49.39467 | -110.98201 | 39159 ft | 513 kts | 120° |